sensor_id;sensor_type;location;lat;lon;timestamp;pressure;altitude;pressure_sealevel;temperature
63220;BMP180;49320;52.512;13.448;2023-05-10T00:00:20;100843.00;;;19.90
63220;BMP180;49320;52.512;13.448;2023-05-10T00:02:49;100834.00;;;19.90
63220;BMP180;49320;52.512;13.448;2023-05-10T00:05:16;100832.00;;;19.80
63220;BMP180;49320;52.512;13.448;2023-05-10T00:07:43;100837.00;;;19.80
63220;BMP180;49320;52.512;13.448;2023-05-10T00:10:11;100834.00;;;19.80
63220;BMP180;49320;52.512;13.448;2023-05-10T00:12:39;100833.00;;;19.70
63220;BMP180;49320;52.512;13.448;2023-05-10T00:15:07;100828.00;;;19.70
63220;BMP180;49320;52.512;13.448;2023-05-10T00:17:34;100831.00;;;19.70
63220;BMP180;49320;52.512;13.448;2023-05-10T00:20:01;100830.00;;;19.60
63220;BMP180;49320;52.512;13.448;2023-05-10T00:22:28;100823.00;;;19.60
63220;BMP180;49320;52.512;13.448;2023-05-10T00:24:55;100815.00;;;19.60
63220;BMP180;49320;52.512;13.448;2023-05-10T00:27:22;100816.00;;;19.50
63220;BMP180;49320;52.512;13.448;2023-05-10T00:29:49;100814.00;;;19.50
63220;BMP180;49320;52.512;13.448;2023-05-10T00:32:15;100810.00;;;19.50
63220;BMP180;49320;52.512;13.448;2023-05-10T00:34:43;100813.00;;;19.40
63220;BMP180;49320;52.512;13.448;2023-05-10T00:37:09;100806.00;;;19.40
63220;BMP180;49320;52.512;13.448;2023-05-10T00:39:36;100799.00;;;19.30
63220;BMP180;49320;52.512;13.448;2023-05-10T00:42:03;100802.00;;;19.30
63220;BMP180;49320;52.512;13.448;2023-05-10T00:44:31;100804.00;;;19.20
63220;BMP180;49320;52.512;13.448;2023-05-10T00:46:59;100800.00;;;19.20
63220;BMP180;49320;52.512;13.448;2023-05-10T00:49:26;100796.00;;;19.10
63220;BMP180;49320;52.512;13.448;2023-05-10T00:51:53;100796.00;;;19.10
63220;BMP180;49320;52.512;13.448;2023-05-10T00:54:20;100794.00;;;19.10
63220;BMP180;49320;52.512;13.448;2023-05-10T00:56:47;100799.00;;;19.00
63220;BMP180;49320;52.512;13.448;2023-05-10T00:59:16;100793.00;;;18.90
63220;BMP180;49320;52.512;13.448;2023-05-10T01:01:45;100787.00;;;18.90
63220;BMP180;49320;52.512;13.448;2023-05-10T01:04:13;100783.00;;;18.80
63220;BMP180;49320;52.512;13.448;2023-05-10T01:06:41;100783.00;;;18.80
63220;BMP180;49320;52.512;13.448;2023-05-10T01:09:09;100781.00;;;18.70
63220;BMP180;49320;52.512;13.448;2023-05-10T01:11:39;100778.00;;;18.70
63220;BMP180;49320;52.512;13.448;2023-05-10T01:14:06;100777.00;;;18.60
63220;BMP180;49320;52.512;13.448;2023-05-10T01:16:41;100775.00;;;18.60
63220;BMP180;49320;52.512;13.448;2023-05-10T01:19:22;100778.00;;;18.50
63220;BMP180;49320;52.512;13.448;2023-05-10T01:22:06;100772.00;;;18.50
63220;BMP180;49320;52.512;13.448;2023-05-10T01:25:29;100772.00;;;18.40
63220;BMP180;49320;52.512;13.448;2023-05-10T01:32:07;100772.00;;;18.30
63220;BMP180;49320;52.512;13.448;2023-05-10T01:34:56;100775.00;;;18.20
63220;BMP180;49320;52.512;13.448;2023-05-10T01:37:42;100762.00;;;18.20
63220;BMP180;49320;52.512;13.448;2023-05-10T01:43:37;100754.00;;;18.00
63220;BMP180;49320;52.512;13.448;2023-05-10T01:46:14;100755.00;;;18.00
63220;BMP180;49320;52.512;13.448;2023-05-10T01:48:54;100759.00;;;18.00
63220;BMP180;49320;52.512;13.448;2023-05-10T01:51:27;100763.00;;;18.00
63220;BMP180;49320;52.512;13.448;2023-05-10T01:54:01;100759.00;;;17.90
63220;BMP180;49320;52.512;13.448;2023-05-10T01:56:32;100754.00;;;17.90
63220;BMP180;49320;52.512;13.448;2023-05-10T01:59:05;100753.00;;;17.90
63220;BMP180;49320;52.512;13.448;2023-05-10T02:01:35;100747.00;;;17.90
63220;BMP180;49320;52.512;13.448;2023-05-10T02:04:07;100763.00;;;17.80
63220;BMP180;49320;52.512;13.448;2023-05-10T02:06:35;100748.00;;;17.80
63220;BMP180;49320;52.512;13.448;2023-05-10T02:09:03;100754.00;;;17.80
63220;BMP180;49320;52.512;13.448;2023-05-10T02:11:32;100751.00;;;17.80
63220;BMP180;49320;52.512;13.448;2023-05-10T02:14:01;100746.00;;;17.80
63220;BMP180;49320;52.512;13.448;2023-05-10T02:16:28;100745.00;;;17.80
63220;BMP180;49320;52.512;13.448;2023-05-10T02:19:01;100742.00;;;17.70
63220;BMP180;49320;52.512;13.448;2023-05-10T02:21:30;100737.00;;;17.70
63220;BMP180;49320;52.512;13.448;2023-05-10T02:24:01;100745.00;;;17.70
63220;BMP180;49320;52.512;13.448;2023-05-10T02:26:31;100733.00;;;17.70
63220;BMP180;49320;52.512;13.448;2023-05-10T02:28:58;100740.00;;;17.70
63220;BMP180;49320;52.512;13.448;2023-05-10T02:31:28;100733.00;;;17.70
63220;BMP180;49320;52.512;13.448;2023-05-10T02:33:57;100728.00;;;17.70
63220;BMP180;49320;52.512;13.448;2023-05-10T02:36:26;100737.00;;;17.60
63220;BMP180;49320;52.512;13.448;2023-05-10T02:38:55;100737.00;;;17.60
63220;BMP180;49320;52.512;13.448;2023-05-10T02:41:23;100743.00;;;17.60
63220;BMP180;49320;52.512;13.448;2023-05-10T02:43:51;100731.00;;;17.60
63220;BMP180;49320;52.512;13.448;2023-05-10T02:46:18;100736.00;;;17.60
63220;BMP180;49320;52.512;13.448;2023-05-10T02:48:45;100728.00;;;17.50
63220;BMP180;49320;52.512;13.448;2023-05-10T02:51:16;100741.00;;;17.50
63220;BMP180;49320;52.512;13.448;2023-05-10T02:53:46;100734.00;;;17.50
63220;BMP180;49320;52.512;13.448;2023-05-10T02:56:33;100729.00;;;17.50
63220;BMP180;49320;52.512;13.448;2023-05-10T02:59:00;100736.00;;;17.40
63220;BMP180;49320;52.512;13.448;2023-05-10T03:01:27;100735.00;;;17.40
63220;BMP180;49320;52.512;13.448;2023-05-10T03:03:54;100731.00;;;17.40
63220;BMP180;49320;52.512;13.448;2023-05-10T03:06:21;100731.00;;;17.30
63220;BMP180;49320;52.512;13.448;2023-05-10T03:08:48;100735.00;;;17.30
63220;BMP180;49320;52.512;13.448;2023-05-10T03:14:53;100732.00;;;17.20
63220;BMP180;49320;52.512;13.448;2023-05-10T03:17:31;100728.00;;;17.20
63220;BMP180;49320;52.512;13.448;2023-05-10T03:20:09;100728.00;;;17.10
63220;BMP180;49320;52.512;13.448;2023-05-10T03:22:55;100724.00;;;17.10
63220;BMP180;49320;52.512;13.448;2023-05-10T03:25:23;100728.00;;;17.10
63220;BMP180;49320;52.512;13.448;2023-05-10T03:27:52;100732.00;;;17.10
63220;BMP180;49320;52.512;13.448;2023-05-10T03:30:19;100730.00;;;17.10
63220;BMP180;49320;52.512;13.448;2023-05-10T03:32:46;100729.00;;;17.10
63220;BMP180;49320;52.512;13.448;2023-05-10T03:35:13;100724.00;;;17.10
63220;BMP180;49320;52.512;13.448;2023-05-10T03:37:40;100733.00;;;17.10
63220;BMP180;49320;52.512;13.448;2023-05-10T03:40:09;100734.00;;;17.10
63220;BMP180;49320;52.512;13.448;2023-05-10T03:42:36;100724.00;;;17.10
63220;BMP180;49320;52.512;13.448;2023-05-10T03:45:03;100725.00;;;17.10
63220;BMP180;49320;52.512;13.448;2023-05-10T03:47:30;100720.00;;;17.10
63220;BMP180;49320;52.512;13.448;2023-05-10T03:49:57;100730.00;;;17.10
63220;BMP180;49320;52.512;13.448;2023-05-10T03:52:24;100722.00;;;17.10
63220;BMP180;49320;52.512;13.448;2023-05-10T03:54:51;100717.00;;;17.10
63220;BMP180;49320;52.512;13.448;2023-05-10T03:57:17;100722.00;;;17.10
63220;BMP180;49320;52.512;13.448;2023-05-10T03:59:45;100714.00;;;17.00
63220;BMP180;49320;52.512;13.448;2023-05-10T04:02:12;100717.00;;;17.10
63220;BMP180;49320;52.512;13.448;2023-05-10T04:04:38;100721.00;;;17.10
63220;BMP180;49320;52.512;13.448;2023-05-10T04:07:05;100718.00;;;17.10
63220;BMP180;49320;52.512;13.448;2023-05-10T04:09:32;100723.00;;;17.10
63220;BMP180;49320;52.512;13.448;2023-05-10T04:11:59;100728.00;;;17.10
63220;BMP180;49320;52.512;13.448;2023-05-10T04:14:28;100719.00;;;17.10
63220;BMP180;49320;52.512;13.448;2023-05-10T04:16:56;100717.00;;;17.20
63220;BMP180;49320;52.512;13.448;2023-05-10T04:19:23;100716.00;;;17.20
63220;BMP180;49320;52.512;13.448;2023-05-10T04:21:50;100709.00;;;17.20
63220;BMP180;49320;52.512;13.448;2023-05-10T04:24:17;100712.00;;;17.20
63220;BMP180;49320;52.512;13.448;2023-05-10T04:26:44;100714.00;;;17.30
63220;BMP180;49320;52.512;13.448;2023-05-10T04:29:11;100713.00;;;17.30
63220;BMP180;49320;52.512;13.448;2023-05-10T04:31:37;100713.00;;;17.30
63220;BMP180;49320;52.512;13.448;2023-05-10T04:34:05;100708.00;;;17.40
63220;BMP180;49320;52.512;13.448;2023-05-10T04:36:32;100711.00;;;17.40
63220;BMP180;49320;52.512;13.448;2023-05-10T04:39:03;100710.00;;;17.50
63220;BMP180;49320;52.512;13.448;2023-05-10T04:41:30;100712.00;;;17.50
63220;BMP180;49320;52.512;13.448;2023-05-10T04:43:57;100705.00;;;17.60
63220;BMP180;49320;52.512;13.448;2023-05-10T04:46:24;100712.00;;;17.60
63220;BMP180;49320;52.512;13.448;2023-05-10T04:48:51;100712.00;;;17.70
63220;BMP180;49320;52.512;13.448;2023-05-10T04:51:18;100708.00;;;17.70
63220;BMP180;49320;52.512;13.448;2023-05-10T04:53:44;100699.00;;;17.70
63220;BMP180;49320;52.512;13.448;2023-05-10T04:56:27;100702.00;;;17.80
63220;BMP180;49320;52.512;13.448;2023-05-10T04:58:54;100706.00;;;17.80
63220;BMP180;49320;52.512;13.448;2023-05-10T05:01:21;100691.00;;;17.90
63220;BMP180;49320;52.512;13.448;2023-05-10T05:03:49;100689.00;;;18.00
63220;BMP180;49320;52.512;13.448;2023-05-10T05:06:17;100705.00;;;18.10
63220;BMP180;49320;52.512;13.448;2023-05-10T05:08:44;100703.00;;;18.10
63220;BMP180;49320;52.512;13.448;2023-05-10T05:11:10;100694.00;;;18.20
63220;BMP180;49320;52.512;13.448;2023-05-10T05:13:37;100696.00;;;18.20
63220;BMP180;49320;52.512;13.448;2023-05-10T05:16:05;100704.00;;;18.30
63220;BMP180;49320;52.512;13.448;2023-05-10T05:18:31;100693.00;;;18.30
63220;BMP180;49320;52.512;13.448;2023-05-10T05:20:58;100692.00;;;18.50
63220;BMP180;49320;52.512;13.448;2023-05-10T05:23:25;100696.00;;;18.70
63220;BMP180;49320;52.512;13.448;2023-05-10T05:25:53;100695.00;;;18.90
63220;BMP180;49320;52.512;13.448;2023-05-10T05:28:20;100699.00;;;19.10
63220;BMP180;49320;52.512;13.448;2023-05-10T05:30:47;100696.00;;;19.40
63220;BMP180;49320;52.512;13.448;2023-05-10T05:33:14;100697.00;;;19.60
63220;BMP180;49320;52.512;13.448;2023-05-10T05:35:44;100687.00;;;19.90
63220;BMP180;49320;52.512;13.448;2023-05-10T05:38:17;100684.00;;;20.10
63220;BMP180;49320;52.512;13.448;2023-05-10T05:40:45;100692.00;;;20.30
63220;BMP180;49320;52.512;13.448;2023-05-10T05:43:12;100689.00;;;20.50
63220;BMP180;49320;52.512;13.448;2023-05-10T05:45:38;100681.00;;;20.80
63220;BMP180;49320;52.512;13.448;2023-05-10T05:48:05;100696.00;;;21.00
63220;BMP180;49320;52.512;13.448;2023-05-10T05:50:32;100688.00;;;21.10
63220;BMP180;49320;52.512;13.448;2023-05-10T05:52:59;100691.00;;;21.30
63220;BMP180;49320;52.512;13.448;2023-05-10T05:55:25;100680.00;;;21.40
63220;BMP180;49320;52.512;13.448;2023-05-10T05:57:53;100679.00;;;21.50
63220;BMP180;49320;52.512;13.448;2023-05-10T06:00:20;100684.00;;;21.60
63220;BMP180;49320;52.512;13.448;2023-05-10T06:02:49;100686.00;;;21.80
63220;BMP180;49320;52.512;13.448;2023-05-10T06:05:15;100689.00;;;21.90
63220;BMP180;49320;52.512;13.448;2023-05-10T06:07:43;100684.00;;;21.90
63220;BMP180;49320;52.512;13.448;2023-05-10T06:10:10;100696.00;;;22.00
63220;BMP180;49320;52.512;13.448;2023-05-10T06:12:37;100691.00;;;22.10
63220;BMP180;49320;52.512;13.448;2023-05-10T06:15:04;100693.00;;;22.20
63220;BMP180;49320;52.512;13.448;2023-05-10T06:17:31;100688.00;;;22.30
63220;BMP180;49320;52.512;13.448;2023-05-10T06:19:58;100691.00;;;22.40
63220;BMP180;49320;52.512;13.448;2023-05-10T06:22:25;100693.00;;;22.40
63220;BMP180;49320;52.512;13.448;2023-05-10T06:24:51;100685.00;;;22.60
63220;BMP180;49320;52.512;13.448;2023-05-10T06:27:18;100687.00;;;22.70
63220;BMP180;49320;52.512;13.448;2023-05-10T06:29:45;100698.00;;;22.70
63220;BMP180;49320;52.512;13.448;2023-05-10T06:32:12;100692.00;;;22.80
63220;BMP180;49320;52.512;13.448;2023-05-10T06:34:39;100688.00;;;22.70
63220;BMP180;49320;52.512;13.448;2023-05-10T06:37:06;100684.00;;;22.70
63220;BMP180;49320;52.512;13.448;2023-05-10T06:39:32;100684.00;;;22.70
63220;BMP180;49320;52.512;13.448;2023-05-10T06:41:59;100684.00;;;22.70
63220;BMP180;49320;52.512;13.448;2023-05-10T06:44:26;100679.00;;;22.70
63220;BMP180;49320;52.512;13.448;2023-05-10T06:46:53;100683.00;;;22.70
63220;BMP180;49320;52.512;13.448;2023-05-10T06:49:22;100689.00;;;22.70
63220;BMP180;49320;52.512;13.448;2023-05-10T06:51:49;100693.00;;;22.80
63220;BMP180;49320;52.512;13.448;2023-05-10T06:54:16;100686.00;;;22.80
63220;BMP180;49320;52.512;13.448;2023-05-10T06:56:43;100687.00;;;22.80
63220;BMP180;49320;52.512;13.448;2023-05-10T06:59:10;100687.00;;;22.80
63220;BMP180;49320;52.512;13.448;2023-05-10T07:01:36;100683.00;;;22.90
63220;BMP180;49320;52.512;13.448;2023-05-10T07:04:03;100686.00;;;22.90
63220;BMP180;49320;52.512;13.448;2023-05-10T07:06:30;100679.00;;;22.90
63220;BMP180;49320;52.512;13.448;2023-05-10T07:09:00;100686.00;;;23.00
63220;BMP180;49320;52.512;13.448;2023-05-10T07:11:27;100689.00;;;23.00
63220;BMP180;49320;52.512;13.448;2023-05-10T07:13:54;100680.00;;;23.00
63220;BMP180;49320;52.512;13.448;2023-05-10T07:16:21;100691.00;;;23.00
63220;BMP180;49320;52.512;13.448;2023-05-10T07:18:48;100677.00;;;23.00
63220;BMP180;49320;52.512;13.448;2023-05-10T07:21:16;100671.00;;;23.00
63220;BMP180;49320;52.512;13.448;2023-05-10T07:23:43;100673.00;;;23.10
63220;BMP180;49320;52.512;13.448;2023-05-10T07:26:10;100672.00;;;23.10
63220;BMP180;49320;52.512;13.448;2023-05-10T07:28:38;100674.00;;;23.10
63220;BMP180;49320;52.512;13.448;2023-05-10T07:31:05;100676.00;;;23.20
63220;BMP180;49320;52.512;13.448;2023-05-10T07:33:32;100677.00;;;23.30
63220;BMP180;49320;52.512;13.448;2023-05-10T07:35:59;100679.00;;;23.30
63220;BMP180;49320;52.512;13.448;2023-05-10T07:38:26;100684.00;;;23.40
63220;BMP180;49320;52.512;13.448;2023-05-10T07:40:52;100682.00;;;23.40
63220;BMP180;49320;52.512;13.448;2023-05-10T07:43:19;100684.00;;;23.50
63220;BMP180;49320;52.512;13.448;2023-05-10T07:45:46;100685.00;;;23.60
63220;BMP180;49320;52.512;13.448;2023-05-10T07:48:13;100677.00;;;23.70
63220;BMP180;49320;52.512;13.448;2023-05-10T07:50:40;100676.00;;;23.70
63220;BMP180;49320;52.512;13.448;2023-05-10T07:53:06;100675.00;;;23.80
63220;BMP180;49320;52.512;13.448;2023-05-10T07:55:34;100666.00;;;23.80
63220;BMP180;49320;52.512;13.448;2023-05-10T07:58:01;100663.00;;;23.90
63220;BMP180;49320;52.512;13.448;2023-05-10T08:00:28;100666.00;;;23.90
63220;BMP180;49320;52.512;13.448;2023-05-10T08:02:55;100675.00;;;24.00
63220;BMP180;49320;52.512;13.448;2023-05-10T08:05:22;100674.00;;;24.00
63220;BMP180;49320;52.512;13.448;2023-05-10T08:07:48;100665.00;;;24.10
63220;BMP180;49320;52.512;13.448;2023-05-10T08:10:15;100662.00;;;24.10
63220;BMP180;49320;52.512;13.448;2023-05-10T08:12:43;100676.00;;;24.20
63220;BMP180;49320;52.512;13.448;2023-05-10T08:15:10;100681.00;;;24.30
63220;BMP180;49320;52.512;13.448;2023-05-10T08:17:37;100678.00;;;24.40
63220;BMP180;49320;52.512;13.448;2023-05-10T08:20:04;100670.00;;;24.40
63220;BMP180;49320;52.512;13.448;2023-05-10T08:22:31;100666.00;;;24.50
63220;BMP180;49320;52.512;13.448;2023-05-10T08:24:58;100676.00;;;24.60
63220;BMP180;49320;52.512;13.448;2023-05-10T08:27:25;100674.00;;;24.70
63220;BMP180;49320;52.512;13.448;2023-05-10T08:29:52;100670.00;;;24.70
63220;BMP180;49320;52.512;13.448;2023-05-10T08:32:18;100670.00;;;24.70
63220;BMP180;49320;52.512;13.448;2023-05-10T08:34:45;100671.00;;;24.80
63220;BMP180;49320;52.512;13.448;2023-05-10T08:37:12;100675.00;;;24.80
63220;BMP180;49320;52.512;13.448;2023-05-10T08:39:40;100673.00;;;24.90
63220;BMP180;49320;52.512;13.448;2023-05-10T08:42:08;100687.00;;;24.90
63220;BMP180;49320;52.512;13.448;2023-05-10T08:44:36;100682.00;;;25.00
63220;BMP180;49320;52.512;13.448;2023-05-10T08:47:06;100685.00;;;25.00
63220;BMP180;49320;52.512;13.448;2023-05-10T08:49:34;100676.00;;;25.10
63220;BMP180;49320;52.512;13.448;2023-05-10T08:52:03;100684.00;;;25.20
63220;BMP180;49320;52.512;13.448;2023-05-10T08:54:32;100691.00;;;25.30
63220;BMP180;49320;52.512;13.448;2023-05-10T08:57:00;100689.00;;;25.30
63220;BMP180;49320;52.512;13.448;2023-05-10T08:59:27;100685.00;;;25.40
63220;BMP180;49320;52.512;13.448;2023-05-10T09:01:57;100687.00;;;25.40
63220;BMP180;49320;52.512;13.448;2023-05-10T09:04:25;100679.00;;;25.40
63220;BMP180;49320;52.512;13.448;2023-05-10T09:06:53;100685.00;;;25.50
63220;BMP180;49320;52.512;13.448;2023-05-10T09:09:21;100683.00;;;25.50
63220;BMP180;49320;52.512;13.448;2023-05-10T09:11:48;100683.00;;;25.60
63220;BMP180;49320;52.512;13.448;2023-05-10T09:14:16;100682.00;;;25.60
63220;BMP180;49320;52.512;13.448;2023-05-10T09:16:43;100675.00;;;25.70
63220;BMP180;49320;52.512;13.448;2023-05-10T09:19:11;100687.00;;;25.70
63220;BMP180;49320;52.512;13.448;2023-05-10T09:21:38;100687.00;;;25.80
63220;BMP180;49320;52.512;13.448;2023-05-10T09:24:07;100688.00;;;25.80
63220;BMP180;49320;52.512;13.448;2023-05-10T09:26:35;100686.00;;;25.80
63220;BMP180;49320;52.512;13.448;2023-05-10T09:29:03;100680.00;;;25.80
63220;BMP180;49320;52.512;13.448;2023-05-10T09:31:48;100689.00;;;25.90
63220;BMP180;49320;52.512;13.448;2023-05-10T09:34:20;100687.00;;;25.90
63220;BMP180;49320;52.512;13.448;2023-05-10T09:36:56;100688.00;;;25.90
63220;BMP180;49320;52.512;13.448;2023-05-10T09:39:34;100696.00;;;26.00
63220;BMP180;49320;52.512;13.448;2023-05-10T09:42:07;100692.00;;;26.10
63220;BMP180;49320;52.512;13.448;2023-05-10T09:44:36;100698.00;;;26.20
63220;BMP180;49320;52.512;13.448;2023-05-10T09:47:03;100702.00;;;26.20
63220;BMP180;49320;52.512;13.448;2023-05-10T09:49:30;100684.00;;;26.30
63220;BMP180;49320;52.512;13.448;2023-05-10T09:54:27;100690.00;;;26.60
63220;BMP180;49320;52.512;13.448;2023-05-10T09:56:54;100690.00;;;26.60
63220;BMP180;49320;52.512;13.448;2023-05-10T09:59:25;100693.00;;;26.70
63220;BMP180;49320;52.512;13.448;2023-05-10T10:01:55;100692.00;;;26.80
63220;BMP180;49320;52.512;13.448;2023-05-10T10:04:23;100679.00;;;26.90
63220;BMP180;49320;52.512;13.448;2023-05-10T10:07:04;100701.00;;;27.00
63220;BMP180;49320;52.512;13.448;2023-05-10T10:09:32;100690.00;;;27.00
63220;BMP180;49320;52.512;13.448;2023-05-10T10:12:01;100699.00;;;27.00
63220;BMP180;49320;52.512;13.448;2023-05-10T10:14:29;100696.00;;;27.00
63220;BMP180;49320;52.512;13.448;2023-05-10T10:16:56;100699.00;;;27.10
63220;BMP180;49320;52.512;13.448;2023-05-10T10:19:35;100694.00;;;27.10
63220;BMP180;49320;52.512;13.448;2023-05-10T10:22:03;100697.00;;;27.10
63220;BMP180;49320;52.512;13.448;2023-05-10T10:24:30;100684.00;;;27.20
63220;BMP180;49320;52.512;13.448;2023-05-10T10:27:14;100692.00;;;27.20
63220;BMP180;49320;52.512;13.448;2023-05-10T10:29:58;100679.00;;;27.20
63220;BMP180;49320;52.512;13.448;2023-05-10T10:32:51;100683.00;;;27.30
63220;BMP180;49320;52.512;13.448;2023-05-10T10:35:22;100691.00;;;27.40
63220;BMP180;49320;52.512;13.448;2023-05-10T10:37:51;100685.00;;;27.40
63220;BMP180;49320;52.512;13.448;2023-05-10T10:42:53;100678.00;;;27.60
63220;BMP180;49320;52.512;13.448;2023-05-10T10:45:21;100680.00;;;27.70
63220;BMP180;49320;52.512;13.448;2023-05-10T10:47:48;100680.00;;;27.80
63220;BMP180;49320;52.512;13.448;2023-05-10T10:50:16;100680.00;;;27.80
63220;BMP180;49320;52.512;13.448;2023-05-10T10:52:44;100684.00;;;27.90
63220;BMP180;49320;52.512;13.448;2023-05-10T10:55:20;100693.00;;;27.90
63220;BMP180;49320;52.512;13.448;2023-05-10T10:57:54;100678.00;;;28.00
63220;BMP180;49320;52.512;13.448;2023-05-10T11:00:37;100665.00;;;28.10
63220;BMP180;49320;52.512;13.448;2023-05-10T11:03:08;100686.00;;;28.10
63220;BMP180;49320;52.512;13.448;2023-05-10T11:05:42;100676.00;;;28.10
63220;BMP180;49320;52.512;13.448;2023-05-10T11:08:17;100675.00;;;28.10
63220;BMP180;49320;52.512;13.448;2023-05-10T11:13:38;100679.00;;;28.20
63220;BMP180;49320;52.512;13.448;2023-05-10T11:19:03;100671.00;;;28.30
63220;BMP180;49320;52.512;13.448;2023-05-10T11:21:32;100677.00;;;28.30
63220;BMP180;49320;52.512;13.448;2023-05-10T11:24:00;100675.00;;;28.40
63220;BMP180;49320;52.512;13.448;2023-05-10T11:26:34;100672.00;;;28.50
63220;BMP180;49320;52.512;13.448;2023-05-10T11:29:02;100668.00;;;28.50
63220;BMP180;49320;52.512;13.448;2023-05-10T11:31:30;100673.00;;;28.60
63220;BMP180;49320;52.512;13.448;2023-05-10T11:33:59;100678.00;;;28.60
63220;BMP180;49320;52.512;13.448;2023-05-10T11:36:33;100684.00;;;28.60
63220;BMP180;49320;52.512;13.448;2023-05-10T11:39:00;100676.00;;;28.70
63220;BMP180;49320;52.512;13.448;2023-05-10T11:41:29;100675.00;;;28.70
63220;BMP180;49320;52.512;13.448;2023-05-10T11:43:57;100662.00;;;28.80
63220;BMP180;49320;52.512;13.448;2023-05-10T11:46:27;100660.00;;;28.80
63220;BMP180;49320;52.512;13.448;2023-05-10T11:48:59;100672.00;;;28.90
63220;BMP180;49320;52.512;13.448;2023-05-10T11:51:28;100659.00;;;28.90
63220;BMP180;49320;52.512;13.448;2023-05-10T11:53:56;100657.00;;;28.90
63220;BMP180;49320;52.512;13.448;2023-05-10T11:56:24;100670.00;;;29.00
63220;BMP180;49320;52.512;13.448;2023-05-10T11:58:55;100675.00;;;29.00
63220;BMP180;49320;52.512;13.448;2023-05-10T12:01:24;100672.00;;;29.10
63220;BMP180;49320;52.512;13.448;2023-05-10T12:03:54;100666.00;;;29.10
63220;BMP180;49320;52.512;13.448;2023-05-10T12:06:22;100680.00;;;29.10
63220;BMP180;49320;52.512;13.448;2023-05-10T12:08:49;100671.00;;;29.20
63220;BMP180;49320;52.512;13.448;2023-05-10T12:11:19;100677.00;;;29.20
63220;BMP180;49320;52.512;13.448;2023-05-10T12:13:48;100677.00;;;29.30
63220;BMP180;49320;52.512;13.448;2023-05-10T12:16:25;100676.00;;;29.30
63220;BMP180;49320;52.512;13.448;2023-05-10T12:18:56;100677.00;;;29.40
63220;BMP180;49320;52.512;13.448;2023-05-10T12:21:25;100675.00;;;29.50
63220;BMP180;49320;52.512;13.448;2023-05-10T12:23:56;100681.00;;;29.50
63220;BMP180;49320;52.512;13.448;2023-05-10T12:26:25;100685.00;;;29.60
63220;BMP180;49320;52.512;13.448;2023-05-10T12:28:54;100693.00;;;29.60
63220;BMP180;49320;52.512;13.448;2023-05-10T12:31:21;100677.00;;;29.70
63220;BMP180;49320;52.512;13.448;2023-05-10T12:33:47;100680.00;;;29.70
63220;BMP180;49320;52.512;13.448;2023-05-10T12:36:16;100688.00;;;29.70
63220;BMP180;49320;52.512;13.448;2023-05-10T12:38:45;100679.00;;;29.70
63220;BMP180;49320;52.512;13.448;2023-05-10T12:41:17;100686.00;;;29.70
63220;BMP180;49320;52.512;13.448;2023-05-10T12:43:45;100681.00;;;29.80
63220;BMP180;49320;52.512;13.448;2023-05-10T12:46:17;100680.00;;;29.80
63220;BMP180;49320;52.512;13.448;2023-05-10T12:48:46;100689.00;;;29.80
63220;BMP180;49320;52.512;13.448;2023-05-10T12:51:23;100685.00;;;29.90
63220;BMP180;49320;52.512;13.448;2023-05-10T12:53:49;100691.00;;;29.90
63220;BMP180;49320;52.512;13.448;2023-05-10T12:56:16;100679.00;;;29.90
63220;BMP180;49320;52.512;13.448;2023-05-10T12:58:43;100679.00;;;29.90
63220;BMP180;49320;52.512;13.448;2023-05-10T13:01:14;100692.00;;;29.90
63220;BMP180;49320;52.512;13.448;2023-05-10T13:03:41;100689.00;;;30.00
63220;BMP180;49320;52.512;13.448;2023-05-10T13:06:10;100684.00;;;30.00
63220;BMP180;49320;52.512;13.448;2023-05-10T13:08:37;100695.00;;;30.10
63220;BMP180;49320;52.512;13.448;2023-05-10T13:11:05;100687.00;;;30.10
63220;BMP180;49320;52.512;13.448;2023-05-10T13:13:32;100683.00;;;30.10
63220;BMP180;49320;52.512;13.448;2023-05-10T13:15:59;100691.00;;;30.20
63220;BMP180;49320;52.512;13.448;2023-05-10T13:18:26;100695.00;;;30.20
63220;BMP180;49320;52.512;13.448;2023-05-10T13:20:54;100686.00;;;30.20
63220;BMP180;49320;52.512;13.448;2023-05-10T13:23:20;100684.00;;;30.20
63220;BMP180;49320;52.512;13.448;2023-05-10T13:25:47;100682.00;;;30.30
63220;BMP180;49320;52.512;13.448;2023-05-10T13:28:14;100679.00;;;30.30
63220;BMP180;49320;52.512;13.448;2023-05-10T13:30:41;100674.00;;;30.30
63220;BMP180;49320;52.512;13.448;2023-05-10T13:33:08;100679.00;;;30.40
63220;BMP180;49320;52.512;13.448;2023-05-10T13:35:34;100671.00;;;30.40
63220;BMP180;49320;52.512;13.448;2023-05-10T13:38:01;100672.00;;;30.40
63220;BMP180;49320;52.512;13.448;2023-05-10T13:40:28;100675.00;;;30.40
63220;BMP180;49320;52.512;13.448;2023-05-10T13:42:55;100674.00;;;30.40
63220;BMP180;49320;52.512;13.448;2023-05-10T13:45:22;100665.00;;;30.40
63220;BMP180;49320;52.512;13.448;2023-05-10T13:47:49;100671.00;;;30.40
63220;BMP180;49320;52.512;13.448;2023-05-10T13:50:16;100673.00;;;30.40
63220;BMP180;49320;52.512;13.448;2023-05-10T13:52:43;100668.00;;;30.40
63220;BMP180;49320;52.512;13.448;2023-05-10T13:55:10;100673.00;;;30.50
63220;BMP180;49320;52.512;13.448;2023-05-10T13:57:39;100670.00;;;30.50
63220;BMP180;49320;52.512;13.448;2023-05-10T14:00:08;100675.00;;;30.60
63220;BMP180;49320;52.512;13.448;2023-05-10T14:02:34;100671.00;;;30.60
63220;BMP180;49320;52.512;13.448;2023-05-10T14:05:02;100670.00;;;30.60
63220;BMP180;49320;52.512;13.448;2023-05-10T14:07:29;100671.00;;;30.70
63220;BMP180;49320;52.512;13.448;2023-05-10T14:09:56;100674.00;;;30.70
63220;BMP180;49320;52.512;13.448;2023-05-10T14:12:23;100685.00;;;30.60
63220;BMP180;49320;52.512;13.448;2023-05-10T14:14:49;100672.00;;;30.60